Time;durP1;ratioP1;P1;durP2;ratioP2;P2;SDS_P1;SDS_P2;PMS_P1;PMS_P2;Temp;Humidity;BMP_temperature;BMP_pressure;BME280_temperature;BME280_humidity;BME280_pressure;Samples;Min_cycle;Max_cycle;Signal;HPM_P1;HPM_P2
2022/06/21 00:01:32;;;;;;;11.05;4.20;;;12.70;83.10;;;;;;4978762;28;20049;-80
2022/06/21 00:03:58;;;;;;;7.68;3.60;;;12.70;83.10;;;;;;4963248;28;20061;-80
2022/06/21 00:06:26;;;;;;;10.13;4.30;;;12.70;83.30;;;;;;4962901;28;20061;-80
2022/06/21 00:08:52;;;;;;;10.55;4.30;;;12.70;83.30;;;;;;4978893;28;20092;-80
2022/06/21 00:11:32;;;;;;;8.50;3.72;;;12.60;83.40;;;;;;4962756;28;20046;-80
2022/06/21 00:13:58;;;;;;;6.80;3.95;;;12.60;83.60;;;;;;4978915;28;20092;-81
2022/06/21 00:16:26;;;;;;;7.00;4.15;;;12.60;83.50;;;;;;4963057;28;20073;-80
2022/06/21 00:18:53;;;;;;;8.52;4.63;;;12.50;83.40;;;;;;4962826;28;20390;-82
2022/06/21 00:21:30;;;;;;;4.90;3.53;;;12.50;83.60;;;;;;4946947;28;20132;-81
2022/06/21 00:23:56;;;;;;;8.82;4.00;;;12.50;83.80;;;;;;4978757;28;20096;-79
2022/06/21 00:26:24;;;;;;;8.50;3.95;;;12.40;83.70;;;;;;4978623;28;20042;-80
2022/06/21 00:28:50;;;;;;;11.30;4.75;;;12.40;83.60;;;;;;4978551;28;20043;-79
2022/06/21 00:31:25;;;;;;;15.32;4.50;;;12.40;83.60;;;;;;4978827;28;20034;-80
2022/06/21 00:33:51;;;;;;;10.00;4.25;;;12.30;83.60;;;;;;4978860;28;20070;-80
2022/06/21 00:36:29;;;;;;;10.73;4.85;;;12.40;83.70;;;;;;4962686;28;20085;-79
2022/06/21 00:38:57;;;;;;;11.85;4.03;;;12.30;83.80;;;;;;4963052;28;20054;-80
2022/06/21 00:41:39;;;;;;;8.88;3.85;;;12.30;83.80;;;;;;4962869;28;20069;-79
2022/06/21 00:44:09;;;;;;;8.57;4.30;;;12.30;83.90;;;;;;4978390;28;20050;-79
2022/06/21 00:46:47;;;;;;;11.38;4.80;;;12.30;83.70;;;;;;4978986;28;20558;-81
2022/06/21 00:49:26;;;;;;;11.13;4.25;;;12.30;83.80;;;;;;4962358;28;20034;-80
2022/06/21 00:52:04;;;;;;;7.15;3.80;;;12.20;83.90;;;;;;4978180;28;20047;-79
2022/06/21 00:54:51;;;;;;;10.45;4.18;;;12.30;84.00;;;;;;4962210;28;20140;-80
2022/06/21 00:57:20;;;;;;;8.65;3.70;;;12.20;84.00;;;;;;4978384;28;20141;-78
2022/06/21 00:59:50;;;;;;;7.20;4.00;;;12.20;84.00;;;;;;4962499;28;20481;-79
2022/06/21 01:02:31;;;;;;;8.13;3.60;;;12.20;83.90;;;;;;4977949;28;20050;-80
2022/06/21 01:04:59;;;;;;;8.63;3.65;;;12.10;83.90;;;;;;4978780;28;20140;-81
2022/06/21 01:07:25;;;;;;;8.02;3.95;;;12.10;84.00;;;;;;4961878;28;20058;-81
2022/06/21 01:09:59;;;;;;;7.78;2.97;;;12.10;84.00;;;;;;4961932;28;20145;-81
2022/06/21 01:12:34;;;;;;;6.15;3.85;;;12.10;83.90;;;;;;4976875;28;20054;-79
2022/06/21 01:15:08;;;;;;;11.43;4.18;;;12.00;83.90;;;;;;4962013;28;20057;-80
2022/06/21 01:17:36;;;;;;;7.10;4.18;;;12.00;84.00;;;;;;4977659;28;20077;-80
2022/06/21 01:20:09;;;;;;;7.70;3.60;;;12.00;84.00;;;;;;4961599;28;20043;-79
2022/06/21 01:22:50;;;;;;;7.63;3.75;;;12.00;83.90;;;;;;4962141;28;20042;-79
2022/06/21 01:25:43;;;;;;;10.68;3.63;;;12.00;84.00;;;;;;4961543;28;20050;-80
2022/06/21 01:28:11;;;;;;;6.85;4.05;;;12.00;84.20;;;;;;4978083;28;20509;-80
2022/06/21 01:30:37;;;;;;;7.15;3.72;;;12.00;84.00;;;;;;4961913;28;20391;-81
2022/06/21 01:33:05;;;;;;;8.02;4.35;;;12.00;84.20;;;;;;4977742;28;20394;-80
2022/06/21 01:35:40;;;;;;;9.98;5.22;;;11.90;84.30;;;;;;4961260;28;20043;-79
2022/06/21 01:38:09;;;;;;;8.23;4.70;;;11.90;84.30;;;;;;4977289;28;20050;-79
2022/06/21 01:40:41;;;;;;;6.68;4.13;;;11.90;84.30;;;;;;4977343;28;20038;-80
2022/06/21 01:43:11;;;;;;;7.53;3.50;;;11.80;84.50;;;;;;4961535;28;20469;-80
2022/06/21 01:45:45;;;;;;;7.25;3.40;;;11.80;84.80;;;;;;4977850;28;20041;-80
2022/06/21 01:48:28;;;;;;;7.90;4.20;;;11.70;84.80;;;;;;4961206;28;20121;-80
2022/06/21 01:50:58;;;;;;;6.90;3.60;;;11.70;84.80;;;;;;4977084;28;20049;-79
2022/06/21 01:53:26;;;;;;;8.07;3.47;;;11.60;84.70;;;;;;4977102;28;20046;-79
2022/06/21 01:55:56;;;;;;;4.97;3.60;;;11.60;84.70;;;;;;4977765;28;20046;-80
2022/06/21 01:58:34;;;;;;;8.30;4.28;;;11.60;85.00;;;;;;4993033;28;20050;-78
2022/06/21 02:01:06;;;;;;;7.80;3.88;;;11.50;85.20;;;;;;4976737;28;20050;-80
2022/06/21 02:03:36;;;;;;;10.48;3.53;;;11.50;85.10;;;;;;4976850;28;20062;-80
2022/06/21 02:06:07;;;;;;;8.43;3.67;;;11.40;85.20;;;;;;4976754;28;20458;-79
2022/06/21 02:08:41;;;;;;;;;;;11.40;85.60;;;;;;4994610;28;20054;-79
2022/06/21 02:11:14;;;;;;;6.25;3.75;;;11.30;86.50;;;;;;4976968;28;20432;-80
2022/06/21 02:13:44;;;;;;;5.95;3.72;;;11.30;85.70;;;;;;4960760;28;20039;-80
2022/06/21 02:16:16;;;;;;;7.85;3.50;;;11.30;85.50;;;;;;4976754;28;20048;-78
2022/06/21 02:18:48;;;;;;;8.00;3.50;;;11.30;85.70;;;;;;4960768;28;20486;-79
2022/06/21 02:21:24;;;;;;;6.40;3.63;;;11.30;85.80;;;;;;4976512;28;20050;-79
2022/06/21 02:23:53;;;;;;;6.97;3.60;;;11.30;85.90;;;;;;4976442;28;20490;-80
2022/06/21 02:26:20;;;;;;;4.07;3.47;;;11.30;86.00;;;;;;4960527;28;20039;-79
2022/06/21 02:28:46;;;;;;;7.68;4.05;;;11.30;86.00;;;;;;4976662;28;20046;-79
2022/06/21 02:31:12;;;;;;;4.75;3.28;;;11.30;86.00;;;;;;4976919;28;20505;-80
2022/06/21 02:33:40;;;;;;;8.70;4.05;;;11.20;85.90;;;;;;4977141;28;20081;-80
2022/06/21 02:36:17;;;;;;;3.95;3.47;;;11.20;85.80;;;;;;4976500;28;20061;-79
2022/06/21 02:38:47;;;;;;;9.93;4.20;;;11.10;86.20;;;;;;4976564;28;20046;-79
2022/06/21 02:41:25;;;;;;;7.20;4.15;;;11.10;86.20;;;;;;4976914;28;20038;-79
2022/06/21 02:44:09;;;;;;;8.10;4.00;;;11.00;86.30;;;;;;4976553;28;20050;-81
2022/06/21 02:46:38;;;;;;;5.80;3.95;;;11.10;86.20;;;;;;4960410;28;20510;-79
2022/06/21 02:49:18;;;;;;;7.25;3.65;;;11.00;86.20;;;;;;4976441;28;20042;-80
2022/06/21 02:51:50;;;;;;;5.72;3.50;;;11.00;86.80;;;;;;4976768;28;20109;-81
2022/06/21 02:54:32;;;;;;;5.60;3.63;;;11.00;86.80;;;;;;4976639;28;20052;-79
2022/06/21 02:57:09;;;;;;;5.72;3.45;;;11.00;86.60;;;;;;4976419;28;20556;-79
2022/06/21 02:59:37;;;;;;;4.28;2.47;;;11.00;86.50;;;;;;4976227;28;20061;-80
2022/06/21 03:02:16;;;;;;;3.28;2.97;;;11.00;86.40;;;;;;4976314;28;20034;-80
2022/06/21 03:04:52;;;;;;;10.68;4.32;;;11.00;86.70;;;;;;4976092;28;20043;-81
2022/06/21 03:07:28;;;;;;;5.40;3.92;;;10.90;86.50;;;;;;4959674;28;20061;-79
2022/06/21 03:09:54;;;;;;;4.82;4.15;;;10.90;86.70;;;;;;4960401;28;20045;-80
2022/06/21 03:12:23;;;;;;;6.60;4.70;;;10.80;86.80;;;;;;4960532;28;20030;-79
2022/06/21 03:14:53;;;;;;;9.63;5.85;;;10.80;87.40;;;;;;4976553;28;20085;-79
2022/06/21 03:17:23;;;;;;;5.45;4.13;;;10.80;87.10;;;;;;4976183;28;20129;-79
2022/06/21 03:19:53;;;;;;;7.00;4.25;;;10.80;86.90;;;;;;4976251;28;20088;-79
2022/06/21 03:22:25;;;;;;;6.97;3.88;;;10.80;87.10;;;;;;4976136;28;20038;-79
2022/06/21 03:24:54;;;;;;;5.53;4.72;;;10.80;87.20;;;;;;4976229;28;20498;-79
2022/06/21 03:27:53;;;;;;;6.25;4.82;;;10.80;87.30;;;;;;4976093;28;20525;-80
2022/06/21 03:30:20;;;;;;;8.00;5.00;;;10.80;88.40;;;;;;4976197;28;20049;-80
2022/06/21 03:32:49;;;;;;;9.98;6.13;;;10.80;88.00;;;;;;4976315;28;20042;-80
2022/06/21 03:35:15;;;;;;;5.22;4.20;;;10.80;87.90;;;;;;4976583;28;20128;-79
2022/06/21 03:37:43;;;;;;;7.82;4.70;;;10.90;88.30;;;;;;4980228;28;20046;-80
2022/06/21 03:43:01;;;;;;;8.38;4.90;;;10.90;88.50;;;;;;4979743;28;20150;-79
2022/06/21 03:45:32;;;;;;;7.32;5.95;;;11.00;88.70;;;;;;4964210;28;20450;-80
2022/06/21 03:48:03;;;;;;;12.07;5.90;;;11.00;88.00;;;;;;4979499;28;20043;-80
2022/06/21 03:51:13;;;;;;;11.80;6.20;;;11.10;88.00;;;;;;4979461;28;20038;-80
2022/06/21 03:53:46;;;;;;;8.75;6.03;;;11.10;88.50;;;;;;4940373;29;20407;-80
2022/06/21 03:56:24;;;;;;;10.00;6.33;;;11.10;88.40;;;;;;4939931;29;20090;-81
2022/06/21 03:58:50;;;;;;;8.45;6.63;;;11.20;89.30;;;;;;4964980;28;20506;-79
2022/06/21 04:01:52;;;;;;;8.85;6.78;;;11.10;89.70;;;;;;4963155;28;20058;-80
2022/06/21 04:04:30;;;;;;;10.30;6.40;;;11.20;89.00;;;;;;4974604;28;20089;-80
2022/06/21 04:07:19;;;;;;;14.35;7.40;;;11.30;88.40;;;;;;4962694;28;20056;-80
2022/06/21 04:09:50;;;;;;;8.73;6.47;;;11.30;89.20;;;;;;4962925;28;20218;-80
2022/06/21 04:12:31;;;;;;;10.05;7.50;;;11.30;88.90;;;;;;4979032;28;20049;-81
2022/06/21 04:15:12;;;;;;;12.80;7.70;;;11.40;88.80;;;;;;4978957;28;20045;-80
2022/06/21 04:18:11;;;;;;;8.93;6.90;;;11.40;88.90;;;;;;4978769;28;20038;-80
2022/06/21 04:21:04;;;;;;;12.20;7.20;;;11.50;89.20;;;;;;4966178;28;20061;-80
2022/06/21 04:23:41;;;;;;;8.77;6.80;;;11.50;89.00;;;;;;4978812;28;20120;-79
2022/06/21 04:26:15;;;;;;;10.38;5.78;;;11.50;88.70;;;;;;4979363;28;20042;-81
2022/06/21 04:28:55;;;;;;;10.32;6.15;;;11.60;89.00;;;;;;4978790;28;20042;-79
2022/06/21 04:31:29;;;;;;;12.00;6.43;;;11.60;88.80;;;;;;4962868;28;20042;-80
2022/06/21 04:34:08;;;;;;;13.20;5.85;;;11.60;89.00;;;;;;4978735;28;20050;-79
2022/06/21 04:36:56;;;;;;;10.52;6.68;;;11.70;89.10;;;;;;4962437;28;20050;-80
2022/06/21 04:39:44;;;;;;;10.70;6.47;;;11.80;89.50;;;;;;4972975;28;20050;-80
2022/06/21 04:42:16;;;;;;;12.15;6.65;;;11.80;90.00;;;;;;4978638;28;20046;-80
2022/06/21 04:44:45;;;;;;;9.38;6.88;;;11.80;89.10;;;;;;4978686;28;20046;-80
2022/06/21 04:47:28;;;;;;;11.65;6.55;;;11.90;89.30;;;;;;4978059;28;20053;-79
2022/06/21 04:50:13;;;;;;;9.27;6.72;;;12.00;89.30;;;;;;4978268;28;20038;-79
2022/06/21 04:52:57;;;;;;;7.78;5.65;;;12.00;89.40;;;;;;4978313;28;20042;-78
2022/06/21 04:55:47;;;;;;;15.07;6.93;;;12.10;89.10;;;;;;4978186;28;20081;-80
2022/06/21 04:58:12;;;;;;;9.15;6.95;;;12.10;89.00;;;;;;4978158;28;20101;-81
2022/06/21 05:00:38;;;;;;;10.88;6.05;;;12.20;89.50;;;;;;4946155;28;20038;-80
2022/06/21 05:03:22;;;;;;;11.90;6.05;;;12.20;88.80;;;;;;4978505;28;20042;-80
2022/06/21 05:05:48;;;;;;;10.55;6.55;;;12.30;88.70;;;;;;4977748;28;20054;-78
2022/06/21 05:08:21;;;;;;;13.23;6.95;;;12.40;89.70;;;;;;4961825;28;20107;-77
2022/06/21 05:10:49;;;;;;;12.40;7.57;;;12.40;89.50;;;;;;4977934;28;20045;-79
2022/06/21 05:13:32;;;;;;;9.73;7.25;;;12.50;89.70;;;;;;4977785;28;20049;-79
2022/06/21 05:16:01;;;;;;;10.38;7.45;;;12.60;89.90;;;;;;4977744;28;20038;-78
2022/06/21 05:18:35;;;;;;;12.20;7.28;;;12.60;90.40;;;;;;4977629;28;20057;-77
2022/06/21 05:21:15;;;;;;;11.32;6.68;;;12.70;90.10;;;;;;4977996;28;20363;-79
2022/06/21 05:23:42;;;;;;;11.80;6.30;;;12.80;89.20;;;;;;4977479;28;20491;-78
2022/06/21 05:26:17;;;;;;;11.52;7.05;;;12.80;89.70;;;;;;4961018;28;20046;-78
2022/06/21 05:28:58;;;;;;;9.70;6.80;;;12.90;90.40;;;;;;4959223;28;20490;-79
2022/06/21 05:31:34;;;;;;;15.30;7.80;;;13.00;90.90;;;;;;4960892;28;20042;-78
2022/06/21 05:34:22;;;;;;;8.27;6.20;;;13.10;90.60;;;;;;4977262;28;20499;-79
2022/06/21 05:37:01;;;;;;;13.30;7.05;;;13.20;90.10;;;;;;4977228;28;20035;-78
2022/06/21 05:39:37;;;;;;;10.65;6.90;;;13.30;89.60;;;;;;4961159;28;20065;-77
2022/06/21 05:42:04;;;;;;;12.48;6.28;;;13.50;89.40;;;;;;4976855;28;20043;-78
2022/06/21 05:44:41;;;;;;;8.45;5.13;;;13.50;88.80;;;;;;4976715;28;20057;-78
2022/06/21 05:47:36;;;;;;;11.60;5.55;;;13.60;88.40;;;;;;4976727;28;20055;-78
2022/06/21 05:50:06;;;;;;;11.27;6.15;;;13.70;88.20;;;;;;4953991;28;20129;-78
2022/06/21 05:52:35;;;;;;;10.88;6.13;;;13.90;87.90;;;;;;4968675;28;20046;-78
2022/06/21 05:55:15;;;;;;;9.82;6.15;;;13.90;87.50;;;;;;4967408;28;20049;-78
2022/06/21 05:57:45;;;;;;;10.55;6.78;;;14.00;87.30;;;;;;4968925;28;20498;-79
2022/06/21 06:00:33;;;;;;;8.20;5.90;;;14.10;87.20;;;;;;4951041;28;20046;-78
2022/06/21 06:03:19;;;;;;;8.68;4.90;;;14.20;87.20;;;;;;4963592;28;20054;-76
2022/06/21 06:05:47;;;;;;;12.75;5.80;;;14.30;87.00;;;;;;4962651;28;20448;-79
2022/06/21 06:08:23;;;;;;;7.88;4.82;;;14.40;86.80;;;;;;4952010;28;20133;-80
2022/06/21 06:10:50;;;;;;;10.45;5.72;;;14.50;86.40;;;;;;4969060;28;20438;-79
2022/06/21 06:13:20;;;;;;;11.55;5.30;;;14.60;86.10;;;;;;4993730;28;20494;-76
2022/06/21 06:15:50;;;;;;;9.50;5.40;;;14.70;85.80;;;;;;4953726;28;20046;-79
2022/06/21 06:18:31;;;;;;;10.52;4.32;;;14.70;85.50;;;;;;4952238;28;20406;-77
2022/06/21 06:20:58;;;;;;;7.70;2.80;;;14.70;85.10;;;;;;4968506;28;20121;-78
2022/06/21 06:23:49;;;;;;;5.82;3.30;;;14.80;83.00;;;;;;4968972;28;20514;-77
2022/06/21 06:26:23;;;;;;;5.72;3.10;;;14.90;82.30;;;;;;4969458;28;20046;-78
2022/06/21 06:29:13;;;;;;;6.43;2.58;;;15.00;81.80;;;;;;4968092;28;20121;-78
2022/06/21 06:31:51;;;;;;;7.10;3.13;;;15.00;80.10;;;;;;4992314;28;20038;-78
2022/06/21 06:34:22;;;;;;;6.55;3.33;;;15.00;78.40;;;;;;4969789;28;20474;-79
2022/06/21 06:36:52;;;;;;;7.85;3.60;;;15.00;79.10;;;;;;4995748;28;20104;-78
2022/06/21 06:39:36;;;;;;;9.35;3.60;;;15.00;79.60;;;;;;4973913;28;20096;-77
2022/06/21 06:42:08;;;;;;;;;;;15.10;79.60;;;;;;4960274;28;20042;-79
2022/06/21 06:44:48;;;;;;;6.43;3.58;;;15.20;79.40;;;;;;4976010;28;19925;-78
2022/06/21 06:47:17;;;;;;;5.35;3.47;;;15.30;78.70;;;;;;4976248;28;20051;-79
2022/06/21 06:50:04;;;;;;;7.38;3.50;;;15.40;78.00;;;;;;4959883;28;20046;-80
2022/06/21 06:52:31;;;;;;;6.05;3.28;;;15.40;77.80;;;;;;4975983;28;20486;-78
2022/06/21 06:55:24;;;;;;;8.32;4.05;;;15.40;78.20;;;;;;4959264;28;20078;-79
2022/06/21 06:58:17;;;;;;;12.32;4.43;;;15.40;77.80;;;;;;4975961;28;20046;-76
2022/06/21 07:00:48;;;;;;;8.63;4.03;;;15.50;77.60;;;;;;4938444;28;20104;-79
2022/06/21 07:03:21;;;;;;;5.75;3.75;;;15.50;77.20;;;;;;4976206;28;20399;-79
2022/06/21 07:06:09;;;;;;;6.30;3.65;;;15.50;77.50;;;;;;4975540;28;20054;-78
2022/06/21 07:08:51;;;;;;;6.97;3.97;;;15.60;77.60;;;;;;4976408;28;20399;-79
2022/06/21 07:11:38;;;;;;;8.63;4.80;;;15.70;77.40;;;;;;4977942;28;20042;-78
2022/06/21 07:14:04;;;;;;;7.15;3.83;;;15.70;77.20;;;;;;4979529;28;20047;-79
2022/06/21 07:16:34;;;;;;;9.05;3.90;;;15.80;76.60;;;;;;4979807;28;20390;-79
2022/06/21 07:19:01;;;;;;;9.60;4.25;;;16.00;76.00;;;;;;4963279;28;20133;-79
2022/06/21 07:21:27;;;;;;;6.65;3.40;;;16.00;76.20;;;;;;4963656;28;20449;-80
2022/06/21 07:23:58;;;;;;;8.73;3.90;;;16.10;75.80;;;;;;4979304;28;20501;-80
2022/06/21 07:26:34;;;;;;;8.82;3.20;;;16.10;75.70;;;;;;4963466;28;20046;-80
2022/06/21 07:29:09;;;;;;;6.05;3.67;;;16.30;74.80;;;;;;4979355;28;20509;-80
2022/06/21 07:31:44;;;;;;;9.88;3.38;;;16.40;74.70;;;;;;4963471;28;20144;-79
2022/06/21 07:34:23;;;;;;;10.68;3.35;;;16.40;73.70;;;;;;4979090;28;20133;-80
2022/06/21 07:37:01;;;;;;;9.75;4.00;;;16.50;73.60;;;;;;4963107;28;20045;-80
2022/06/21 07:39:34;;;;;;;7.88;3.00;;;16.50;73.70;;;;;;4963142;28;20156;-80
2022/06/21 07:42:07;;;;;;;4.15;2.55;;;16.50;73.00;;;;;;4963115;28;20042;-80
2022/06/21 07:44:40;;;;;;;6.07;3.15;;;16.70;72.60;;;;;;4963113;28;20038;-79
2022/06/21 07:47:15;;;;;;;6.32;2.72;;;16.80;72.60;;;;;;4978924;28;20046;-80
2022/06/21 07:49:48;;;;;;;8.48;2.63;;;17.00;72.00;;;;;;4962930;28;20034;-80
2022/06/21 07:52:24;;;;;;;5.88;2.70;;;16.90;72.40;;;;;;4978987;28;20035;-79
2022/06/21 07:54:59;;;;;;;7.55;2.75;;;16.90;71.80;;;;;;4978839;28;20038;-80
2022/06/21 07:57:37;;;;;;;7.18;2.60;;;17.00;72.30;;;;;;4978893;28;20038;-80
2022/06/21 08:00:13;;;;;;;3.85;2.20;;;17.10;71.40;;;;;;4979113;28;20437;-79
2022/06/21 08:08:47;;;;;;;5.50;2.63;;;17.30;70.00;;;;;;4978573;28;20181;-79
2022/06/21 08:11:20;;;;;;;4.68;3.15;;;17.30;69.80;;;;;;4978993;28;20092;-80
2022/06/21 08:13:46;;;;;;;7.32;3.58;;;17.20;70.40;;;;;;4978748;28;20393;-80
2022/06/21 08:16:21;;;;;;;4.88;2.67;;;17.20;70.50;;;;;;4962317;28;20038;-80
2022/06/21 08:18:59;;;;;;;6.72;2.60;;;17.30;69.80;;;;;;4978848;28;20108;-80
2022/06/21 08:21:31;;;;;;;7.28;2.72;;;17.30;69.40;;;;;;4977843;28;20046;-80
2022/06/21 08:24:03;;;;;;;5.30;2.40;;;17.10;69.20;;;;;;4978334;28;20089;-80
2022/06/21 08:26:39;;;;;;;5.10;2.22;;;17.00;69.40;;;;;;4978271;28;20129;-80
2022/06/21 08:29:28;;;;;;;4.93;2.67;;;17.20;68.70;;;;;;4962506;28;20117;-80
2022/06/21 08:32:07;;;;;;;5.32;2.80;;;17.40;68.40;;;;;;4978345;28;20113;-80
2022/06/21 08:34:43;;;;;;;5.43;2.92;;;17.60;68.80;;;;;;4978261;28;20053;-81
2022/06/21 08:37:24;;;;;;;5.80;2.80;;;17.90;69.20;;;;;;4978161;28;20050;-80
2022/06/21 08:40:29;;;;;;;5.20;2.30;;;18.00;67.50;;;;;;4978142;28;20053;-80
2022/06/21 08:43:13;;;;;;;7.13;2.20;;;18.20;67.30;;;;;;4881772;29;20517;-80
2022/06/21 08:46:07;;;;;;;5.82;2.40;;;18.30;67.40;;;;;;4969910;28;20498;-81
2022/06/21 08:49:08;;;;;;;8.10;2.70;;;18.40;67.20;;;;;;4978187;28;20054;-81
2022/06/21 08:52:12;;;;;;;4.95;2.80;;;18.30;66.50;;;;;;4977853;28;20038;-80
2022/06/21 08:55:00;;;;;;;3.90;2.55;;;18.00;66.50;;;;;;4929170;28;20058;-80
2022/06/21 08:57:35;;;;;;;8.23;3.05;;;18.00;66.90;;;;;;4961858;28;20127;-81
2022/06/21 09:00:26;;;;;;;5.88;3.00;;;18.20;67.20;;;;;;4977879;28;20038;-80
2022/06/21 09:03:07;;;;;;;4.72;2.58;;;18.30;67.20;;;;;;4977893;28;20517;-81
2022/06/21 09:05:33;;;;;;;5.95;2.53;;;18.50;65.80;;;;;;4961288;28;20501;-81
2022/06/21 09:08:07;;;;;;;7.45;2.95;;;18.60;64.90;;;;;;4993622;28;20042;-81
2022/06/21 09:11:09;;;;;;;3.55;2.17;;;18.70;64.00;;;;;;4977636;28;20046;-81
2022/06/21 09:13:48;;;;;;;6.90;2.17;;;18.70;64.70;;;;;;4977381;28;20077;-81
2022/06/21 09:16:34;;;;;;;4.68;2.80;;;18.80;62.80;;;;;;4978434;28;20042;-81
2022/06/21 09:19:23;;;;;;;6.15;2.97;;;18.90;62.90;;;;;;4978244;28;20054;-79
2022/06/21 09:21:58;;;;;;;5.07;2.60;;;19.10;62.40;;;;;;4961806;28;20050;-80
2022/06/21 09:24:47;;;;;;;6.78;2.83;;;19.20;62.20;;;;;;4977450;28;20140;-81
2022/06/21 09:27:31;;;;;;;4.65;2.95;;;19.40;62.40;;;;;;4977143;28;20411;-78
2022/06/21 09:30:16;;;;;;;4.63;2.78;;;19.40;62.70;;;;;;4977267;28;20038;-79
2022/06/21 09:33:03;;;;;;;4.70;2.50;;;19.30;62.30;;;;;;4960907;28;20089;-81
2022/06/21 09:35:28;;;;;;;5.85;2.38;;;19.20;61.60;;;;;;4993474;28;20402;-80
2022/06/21 09:38:19;;;;;;;6.85;2.70;;;19.10;61.70;;;;;;4977027;28;20068;-80
2022/06/21 09:41:07;;;;;;;7.30;3.00;;;19.00;62.30;;;;;;4993352;28;20397;-80
2022/06/21 09:44:10;;;;;;;3.92;2.60;;;18.90;62.10;;;;;;4960665;28;20202;-80
2022/06/21 09:46:58;;;;;;;4.45;2.28;;;18.70;62.10;;;;;;4960754;28;20082;-79
2022/06/21 09:49:58;;;;;;;4.18;2.10;;;18.70;62.90;;;;;;4961444;28;20052;-80
2022/06/21 09:52:56;;;;;;;8.20;3.20;;;18.80;63.40;;;;;;4892798;28;20486;-81
2022/06/21 09:55:27;;;;;;;9.52;3.78;;;18.90;62.80;;;;;;4976745;28;20074;-81
2022/06/21 09:58:09;;;;;;;6.68;2.22;;;19.00;62.70;;;;;;4960580;28;20104;-80
2022/06/21 10:00:37;;;;;;;5.07;3.00;;;19.10;62.60;;;;;;4977200;28;20081;-81
2022/06/21 10:03:21;;;;;;;7.03;3.10;;;19.10;61.10;;;;;;4960618;28;20046;-81
2022/06/21 10:05:47;;;;;;;;;;;19.00;61.60;;;;;;4976758;28;20045;-81
2022/06/21 10:08:46;;;;;;;3.80;2.40;;;18.90;62.30;;;;;;4992792;28;19921;-82
2022/06/21 10:11:33;;;;;;;7.00;2.90;;;19.00;62.20;;;;;;4960702;28;20046;-80
2022/06/21 10:14:21;;;;;;;4.60;1.80;;;19.00;62.70;;;;;;4976295;28;20057;-81
2022/06/21 10:17:20;;;;;;;6.43;2.80;;;19.30;62.50;;;;;;4976565;28;20116;-80
2022/06/21 10:19:49;;;;;;;5.65;2.35;;;19.80;60.60;;;;;;4976606;28;20458;-79
2022/06/21 10:22:55;;;;;;;4.18;2.30;;;20.00;60.60;;;;;;4976448;28;20516;-80
2022/06/21 10:25:50;;;;;;;6.97;3.40;;;20.40;60.70;;;;;;4976323;28;20125;-80
2022/06/21 10:28:31;;;;;;;7.50;3.00;;;20.40;58.60;;;;;;4976771;28;20061;-82
2022/06/21 10:31:25;;;;;;;4.63;2.50;;;20.60;59.80;;;;;;4976231;28;20047;-79
2022/06/21 10:33:54;;;;;;;5.90;2.97;;;20.70;58.70;;;;;;4976225;28;20598;-78
2022/06/21 10:37:04;;;;;;;3.67;2.33;;;20.70;58.50;;;;;;4976147;28;20129;-79
2022/06/21 10:39:48;;;;;;;5.57;2.15;;;20.90;58.30;;;;;;4960131;28;20039;-80
2022/06/21 10:42:47;;;;;;;4.22;1.92;;;21.00;58.00;;;;;;4992317;28;20504;-80
2022/06/21 10:45:35;;;;;;;3.33;1.80;;;20.90;56.60;;;;;;4978144;28;20046;-81
2022/06/21 10:48:38;;;;;;;4.75;2.60;;;20.70;55.90;;;;;;4980043;28;20494;-78
2022/06/21 10:51:17;;;;;;;4.25;2.72;;;20.90;56.50;;;;;;4996132;28;20038;-79
2022/06/21 10:54:02;;;;;;;5.18;1.90;;;21.20;55.90;;;;;;4963814;28;20520;-80
2022/06/21 11:02:56;;;;;;;5.72;2.03;;;21.50;55.40;;;;;;4907352;28;20116;-79
2022/06/21 11:05:51;;;;;;;4.63;1.92;;;21.60;54.50;;;;;;4996137;28;20038;-80
2022/06/21 11:08:37;;;;;;;4.07;1.98;;;21.90;54.50;;;;;;4895110;28;20143;-80
2022/06/21 11:11:21;;;;;;;4.05;2.00;;;21.90;54.00;;;;;;4963131;28;20046;-80
2022/06/21 11:14:01;;;;;;;3.75;1.92;;;22.10;53.90;;;;;;4979599;28;20053;-77
2022/06/21 11:16:56;;;;;;;3.33;2.13;;;22.20;53.70;;;;;;4963446;28;20147;-78
2022/06/21 11:19:34;;;;;;;3.03;2.10;;;22.30;52.00;;;;;;4979369;28;20042;-78
2022/06/21 11:22:19;;;;;;;4.22;2.70;;;22.40;52.10;;;;;;4979760;28;20386;-82
2022/06/21 11:25:11;;;;;;;5.90;2.40;;;22.20;50.90;;;;;;4979473;28;20038;-80
2022/06/21 11:28:01;;;;;;;5.07;2.75;;;22.20;51.90;;;;;;4979394;28;20124;-82
2022/06/21 11:30:45;;;;;;;6.05;2.80;;;22.40;53.50;;;;;;4963166;28;20046;-80
2022/06/21 11:33:53;;;;;;;6.82;3.00;;;22.40;52.80;;;;;;4963277;28;20125;-81
2022/06/21 11:36:25;;;;;;;5.53;3.10;;;22.30;53.30;;;;;;4995473;28;20046;-82
2022/06/21 11:39:16;;;;;;;4.85;2.63;;;22.30;53.80;;;;;;4979268;28;20053;-81
2022/06/21 11:42:06;;;;;;;5.68;2.00;;;22.30;53.90;;;;;;4995359;28;20129;-82
2022/06/21 11:44:53;;;;;;;4.30;1.88;;;22.30;51.70;;;;;;4995309;28;20042;-82
2022/06/21 11:47:41;;;;;;;2.97;1.75;;;22.40;51.70;;;;;;4978938;28;20462;-82
2022/06/21 11:50:23;;;;;;;4.18;1.88;;;22.40;50.30;;;;;;4979229;28;20121;-80
2022/06/21 11:53:13;;;;;;;4.93;2.30;;;22.50;49.40;;;;;;4963294;28;20442;-81
2022/06/21 11:55:42;;;;;;;9.98;2.30;;;22.70;49.50;;;;;;4994451;28;20042;-80
2022/06/21 11:58:46;;;;;;;3.53;2.08;;;22.90;49.50;;;;;;4962389;28;20042;-81
2022/06/21 12:01:22;;;;;;;3.80;1.90;;;23.10;49.30;;;;;;4978655;28;20046;-81
2022/06/21 12:04:25;;;;;;;6.85;2.22;;;23.40;50.00;;;;;;4978919;28;20391;-81
2022/06/21 12:07:01;;;;;;;6.50;2.05;;;23.50;49.30;;;;;;4962319;28;20058;-80
2022/06/21 12:09:36;;;;;;;5.00;2.28;;;23.20;48.50;;;;;;4978601;28;20043;-81
2022/06/21 12:12:35;;;;;;;3.85;2.22;;;23.20;49.70;;;;;;4978579;28;20046;-81
2022/06/21 12:15:01;;;;;;;4.57;2.58;;;23.50;49.30;;;;;;4978437;28;20501;-81
2022/06/21 12:17:57;;;;;;;5.60;2.45;;;23.40;49.40;;;;;;4978379;28;20046;-80
2022/06/21 12:20:31;;;;;;;3.45;1.90;;;23.50;48.90;;;;;;4978393;28;20093;-81
2022/06/21 12:23:16;;;;;;;5.63;1.92;;;23.80;50.10;;;;;;4962293;28;20056;-81
2022/06/21 12:25:42;;;;;;;5.63;1.77;;;24.00;49.60;;;;;;4978295;28;20045;-80
2022/06/21 12:28:25;;;;;;;6.63;2.50;;;24.30;50.60;;;;;;4978113;28;20114;-81
2022/06/21 12:30:52;;;;;;;5.13;2.00;;;24.40;47.10;;;;;;4962467;28;20038;-79
2022/06/21 12:33:22;;;;;;;2.80;2.00;;;24.00;47.50;;;;;;4962164;28;20038;-81
2022/06/21 12:35:56;;;;;;;3.83;1.85;;;24.10;48.40;;;;;;4962035;28;20042;-82
2022/06/21 12:38:39;;;;;;;3.90;2.10;;;24.10;47.20;;;;;;4978088;28;20041;-81
2022/06/21 12:41:19;;;;;;;4.80;2.20;;;24.30;47.60;;;;;;4978316;28;20480;-80
2022/06/21 12:44:05;;;;;;;2.78;1.90;;;24.30;46.20;;;;;;4994204;28;20092;-80
2022/06/21 12:47:02;;;;;;;4.68;1.60;;;24.40;47.70;;;;;;4978004;28;20130;-79
2022/06/21 12:50:06;;;;;;;3.30;2.00;;;24.50;46.70;;;;;;4977004;28;20129;-78
2022/06/21 12:52:43;;;;;;;2.85;1.60;;;24.50;46.70;;;;;;4961748;28;20042;-80
2022/06/21 12:55:31;;;;;;;2.88;1.73;;;24.60;46.40;;;;;;4962158;28;20426;-80
2022/06/21 12:58:40;;;;;;;4.70;2.03;;;24.80;44.10;;;;;;4961588;28;20105;-81
2022/06/21 13:01:18;;;;;;;3.60;2.42;;;24.70;45.70;;;;;;4922740;28;20054;-81
2022/06/21 13:03:56;;;;;;;4.68;2.17;;;24.80;45.00;;;;;;4961433;28;20049;-80
2022/06/21 13:06:22;;;;;;;5.05;1.95;;;24.90;44.20;;;;;;4977403;28;20060;-79
2022/06/21 13:09:05;;;;;;;3.72;1.98;;;24.80;44.10;;;;;;4993582;28;20046;-80
2022/06/21 13:11:43;;;;;;;2.95;1.80;;;24.60;43.90;;;;;;4977560;28;20042;-80
2022/06/21 13:14:53;;;;;;;3.67;1.88;;;24.50;44.50;;;;;;4977561;28;20391;-81
2022/06/21 13:17:40;;;;;;;9.13;2.58;;;24.10;45.10;;;;;;4953052;28;20076;-79
2022/06/21 13:20:31;;;;;;;7.63;2.13;;;23.70;44.10;;;;;;4977373;28;20580;-79
2022/06/21 13:22:58;;;;;;;2.95;2.03;;;23.40;46.00;;;;;;4977392;28;20049;-80
2022/06/21 13:25:27;;;;;;;3.72;2.22;;;23.40;46.30;;;;;;4961055;28;20105;-79
2022/06/21 13:28:37;;;;;;;5.90;2.33;;;23.40;46.60;;;;;;4977153;28;20081;-80
2022/06/21 13:31:45;;;;;;;4.18;2.40;;;23.30;46.70;;;;;;4993636;28;20045;-81
2022/06/21 13:34:34;;;;;;;5.28;2.22;;;23.30;47.00;;;;;;4964484;28;20050;-80
2022/06/21 13:37:17;;;;;;;3.53;1.98;;;23.30;46.70;;;;;;4977005;28;20046;-81
2022/06/21 13:39:56;;;;;;;3.17;1.50;;;23.40;46.60;;;;;;4961340;28;20371;-81
2022/06/21 13:42:38;;;;;;;3.65;2.38;;;23.40;45.50;;;;;;4977574;28;20049;-80
2022/06/21 13:45:10;;;;;;;2.55;1.63;;;23.40;46.90;;;;;;4979366;28;20038;-80
2022/06/21 13:47:45;;;;;;;4.07;2.45;;;23.40;45.10;;;;;;4960657;28;20045;-80
2022/06/21 13:50:20;;;;;;;3.78;1.75;;;23.30;44.90;;;;;;4977142;28;20395;-79
2022/06/21 13:53:05;;;;;;;5.65;1.83;;;23.10;45.60;;;;;;4960709;28;20089;-79
2022/06/21 13:55:43;;;;;;;3.25;2.03;;;23.20;45.00;;;;;;4960602;28;20120;-81
2022/06/21 13:58:23;;;;;;;2.13;1.52;;;23.30;45.20;;;;;;4960726;28;20046;-81
2022/06/21 14:01:12;;;;;;;4.35;1.95;;;23.40;45.40;;;;;;4976624;28;20046;-79